»·PEaware :: QXE2513 KPDX-KBOI

QXE2513 :: KPDX-KBOI

FLIGHT INFORMATION

Flight Status: Arrived
Operator:
Horizon Air
More flights by this operator :: More flights under this callsign
Pilot: Anonymous 16594 (16594)
Aircraft: DEHAVILLAND DASH 8 400
(DH8D)
More flights by this aircraft type
Origin: KPDX Portland Intl
United States
Destination: KBOI Boise Air Terminal/Gowen
United States
More flights between these airports :: More routes between these airports
Route: WHAMY4 IMB HOSTS PARMO2
File this flight plan on PilotEdge
Remarks:
Altitude:
(Current/Filed)
25,000ft
Speed:
(Current/Filed)
348kts
Departed: 23-Sep-17 03:22 PM
Arrived: 23-Sep-17 04:34 PM
Distance/Time
Traveled:
298nm/1:12
Distance/Time
To Go:
Arrived

Flight Plot

Page will automatically refresh every two minutes.

Flight plan parsing failed; only flown route is shown


Map Options




Map Legend


Flown Route
Filed Route
Departure Airport
Arrival Airport
Navaid (VOR, NDB)
Fix

Horizontal Profiles

Position Reports

Time Latitude Longitude Heading Altitude Ground
Speed
23-Sep-17 14:55 45.585965 -122.591616 47 37ft 0kts
23-Sep-17 14:56 45.585965 -122.591616 47 37ft 0kts
23-Sep-17 14:57 45.585965 -122.591616 47 37ft 0kts
23-Sep-17 14:58 45.585965 -122.591616 47 37ft 0kts
23-Sep-17 14:59 45.585965 -122.591616 47 37ft 0kts
23-Sep-17 15:00 45.585965 -122.591616 47 37ft 0kts
23-Sep-17 15:01 45.585965 -122.591616 47 37ft 0kts
23-Sep-17 15:02 45.585965 -122.591616 47 37ft 0kts
23-Sep-17 15:03 45.585965 -122.591616 47 37ft 0kts
23-Sep-17 15:04 45.585965 -122.591616 47 37ft 0kts
23-Sep-17 15:05 45.585965 -122.591616 47 37ft 0kts
23-Sep-17 15:06 45.585965 -122.591616 47 37ft 0kts
23-Sep-17 15:07 45.585965 -122.591616 47 37ft 0kts
23-Sep-17 15:08 45.585965 -122.591616 47 37ft 0kts
23-Sep-17 15:09 45.585965 -122.591616 47 37ft 0kts
23-Sep-17 15:10 45.585965 -122.591616 47 37ft 0kts
23-Sep-17 15:11 45.585965 -122.591616 47 37ft 0kts
23-Sep-17 15:12 45.585965 -122.591616 47 37ft 0kts
23-Sep-17 15:13 45.585965 -122.591616 47 37ft 0kts
23-Sep-17 15:14 45.585675 -122.592137 60 37ft 2kts
23-Sep-17 15:15 45.585724 -122.592811 129 37ft 0kts
23-Sep-17 15:16 45.585724 -122.592811 129 37ft 0kts
23-Sep-17 15:17 45.585724 -122.592811 129 37ft 0kts
23-Sep-17 15:18 45.585724 -122.592811 129 37ft 0kts
23-Sep-17 15:19 45.585724 -122.592811 129 37ft 0kts
23-Sep-17 15:20 45.585239 -122.592035 135 37ft 11kts
23-Sep-17 15:21 45.584432 -122.590681 120 37ft 7kts
23-Sep-17 15:22 45.581662 -122.583718 139 37ft 16kts
23-Sep-17 15:23 45.581434 -122.583657 207 37ft 0kts
23-Sep-17 15:24 45.581433 -122.583657 207 37ft 0kts
23-Sep-17 15:25 45.581035 -122.585282 296 37ft 23kts
23-Sep-17 15:26 45.597266 -122.627981 299 1511ft 148kts
23-Sep-17 15:27 45.623672 -122.686984 299 3789ft 186kts
23-Sep-17 15:28 45.650570 -122.753569 298 6841ft 194kts
23-Sep-17 15:29 45.667443 -122.827176 262 9713ft 207kts
23-Sep-17 15:30 45.645390 -122.904769 213 12024ft 235kts
23-Sep-17 15:31 45.577303 -122.906599 164 14204ft 251kts
23-Sep-17 15:32 45.527233 -122.844992 106 16188ft 244kts
23-Sep-17 15:33 45.498581 -122.755803 103 17471ft 247kts
23-Sep-17 15:34 45.470414 -122.664513 103 18577ft 252kts
23-Sep-17 15:35 45.441539 -122.571621 103 20047ft 259kts
23-Sep-17 15:36 45.411628 -122.475935 104 21383ft 266kts
23-Sep-17 15:37 45.381132 -122.379030 103 22572ft 271kts
23-Sep-17 15:38 45.349669 -122.279165 103 23613ft 278kts
23-Sep-17 15:39 45.317441 -122.177453 103 24564ft 282kts
23-Sep-17 15:40 45.284588 -122.073773 103 25111ft 298kts
23-Sep-17 15:41 45.249340 -121.961104 102 25137ft 322kts
23-Sep-17 15:42 45.218487 -121.839718 100 25126ft 336kts
23-Sep-17 15:43 45.186218 -121.712823 101 25121ft 346kts
23-Sep-17 15:44 45.152761 -121.583276 101 25118ft 352kts
23-Sep-17 15:45 45.118912 -121.452676 102 25115ft 355kts
23-Sep-17 15:46 45.084939 -121.323052 102 25114ft 358kts
23-Sep-17 15:47 45.049571 -121.189105 102 25114ft 360kts
23-Sep-17 15:48 45.014568 -121.056249 102 25111ft 361kts
23-Sep-17 15:49 44.979335 -120.923740 103 25112ft 361kts
23-Sep-17 15:50 44.943998 -120.791220 103 25115ft 361kts
23-Sep-17 15:51 44.908476 -120.659037 103 25117ft 361kts
23-Sep-17 15:52 44.872885 -120.527250 103 25119ft 360kts
23-Sep-17 15:53 44.837357 -120.396320 103 25121ft 358kts
23-Sep-17 15:54 44.801676 -120.265277 103 25123ft 358kts
23-Sep-17 15:55 44.771781 -120.156537 103 25125ft 358kts
23-Sep-17 15:56 44.736023 -120.026771 103 25126ft 358kts
23-Sep-17 15:57 44.700228 -119.896879 104 25129ft 357kts
23-Sep-17 15:58 44.657774 -119.745304 104 25132ft 357kts
23-Sep-17 15:59 44.620857 -119.616255 105 25135ft 357kts
23-Sep-17 16:00 44.589336 -119.509368 105 25137ft 356kts
23-Sep-17 16:01 44.551523 -119.381228 105 25140ft 356kts
23-Sep-17 16:02 44.513642 -119.252542 105 25143ft 357kts
23-Sep-17 16:03 44.469230 -119.102663 106 25145ft 358kts
23-Sep-17 16:04 44.430820 -118.974021 106 25146ft 358kts
23-Sep-17 16:05 44.398701 -118.866754 106 25146ft 358kts
23-Sep-17 16:06 44.360210 -118.739056 105 25145ft 357kts
23-Sep-17 16:07 44.321858 -118.611968 106 25144ft 357kts
23-Sep-17 16:08 44.282913 -118.483850 106 25142ft 357kts
23-Sep-17 16:09 44.244058 -118.356663 106 25139ft 357kts
23-Sep-17 16:10 44.205117 -118.229937 106 25135ft 357kts
23-Sep-17 16:11 44.165847 -118.102400 106 23703ft 353kts
23-Sep-17 16:12 44.127868 -117.979056 108 21831ft 344kts
23-Sep-17 16:13 44.090555 -117.857455 111 19628ft 340kts
23-Sep-17 16:14 44.052535 -117.737812 111 17319ft 338kts
23-Sep-17 16:15 44.015890 -117.621204 112 15377ft 311kts
23-Sep-17 16:16 43.983532 -117.519801 111 14009ft 267kts
23-Sep-17 16:17 43.955111 -117.429642 110 12631ft 240kts
23-Sep-17 16:18 43.934478 -117.364414 111 11892ft 210kts
23-Sep-17 16:19 43.911820 -117.293458 111 10935ft 191kts
23-Sep-17 16:20 43.886086 -117.211841 111 10136ft 259kts
23-Sep-17 16:21 43.855501 -117.116695 112 8978ft 283kts
23-Sep-17 16:22 43.823747 -117.018300 113 8058ft 261kts
23-Sep-17 16:23 43.796367 -116.934115 112 8015ft 225kts
23-Sep-17 16:24 43.770936 -116.855935 112 7983ft 221kts
23-Sep-17 16:25 43.738798 -116.783538 127 7385ft 223kts
23-Sep-17 16:26 43.700627 -116.718478 127 6975ft 186kts
23-Sep-17 16:27 43.669284 -116.664928 125 6870ft 133kts
23-Sep-17 16:28 43.646559 -116.601982 124 7266ft 221kts
23-Sep-17 16:29 43.601125 -116.543491 133 7728ft 227kts
23-Sep-17 16:30 43.560395 -116.472685 115 7021ft 237kts
23-Sep-17 16:31 43.535706 -116.390297 97 6421ft 219kts
23-Sep-17 16:32 43.530690 -116.310763 85 6145ft 198kts
23-Sep-17 16:33 43.522979 -116.243671 108 5499ft 177kts
23-Sep-17 16:34 43.502505 -116.179200 117 5013ft 184kts
23-Sep-17 16:35 43.506308 -116.123466 18 4576ft 156kts
23-Sep-17 16:36 43.535442 -116.153040 314 3852ft 126kts
23-Sep-17 16:37 43.555205 -116.193085 296 3082ft 124kts
23-Sep-17 16:38 43.562984 -116.215786 299 2878ft 16kts

Navigation Log

Ident Type
Flight plan parsing failed, navigation log unavailable